Time;durP1;ratioP1;P1;durP2;ratioP2;P2;SDS_P1;SDS_P2;PMS_P1;PMS_P2;Temp;Humidity;BMP_temperature;BMP_pressure;BME280_temperature;BME280_humidity;BME280_pressure;Samples;Min_cycle;Max_cycle;Signal;HPM_P1;HPM_P2
2022/06/22 00:01:29;;;;;;;6.55;2.63;;;;;;;19.68;46.98;101259.13;5100100;28;20055;-61
2022/06/22 00:04:01;;;;;;;7.00;3.05;;;;;;;19.67;47.02;101253.94;5102481;28;20051;-61
2022/06/22 00:06:36;;;;;;;6.45;2.95;;;;;;;19.66;46.88;101260.50;5097994;28;20044;-60
2022/06/22 00:09:04;;;;;;;4.45;2.42;;;;;;;19.65;46.89;101259.66;5100452;28;20080;-59
2022/06/22 00:11:35;;;;;;;6.70;3.13;;;;;;;19.64;47.13;101257.22;5093170;28;20086;-60
2022/06/22 00:14:03;;;;;;;6.00;2.92;;;;;;;19.62;47.28;101243.84;5093508;28;20055;-60
2022/06/22 00:16:36;;;;;;;6.85;2.47;;;;;;;19.60;47.38;101247.94;5101003;28;20145;-60
2022/06/22 00:19:15;;;;;;;8.30;3.22;;;;;;;19.60;47.42;101251.50;5103653;28;20048;-60
2022/06/22 00:21:42;;;;;;;10.15;3.00;;;;;;;19.58;47.70;101256.41;5097308;28;20097;-60
2022/06/22 00:24:35;;;;;;;5.13;3.00;;;;;;;19.57;47.60;101253.94;5101485;28;20090;-61
2022/06/22 00:27:23;;;;;;;7.07;2.75;;;;;;;19.55;47.86;101246.03;5093037;28;20044;-61
2022/06/22 00:30:17;;;;;;;7.10;3.35;;;;;;;19.52;48.28;101241.13;5097679;28;20067;-61
2022/06/22 00:33:13;;;;;;;5.40;2.65;;;;;;;19.52;48.12;101226.69;5082225;28;20058;-61
2022/06/22 00:35:51;;;;;;;9.90;3.17;;;;;;;19.48;48.12;101224.47;5097731;28;20603;-60
2022/06/22 00:38:21;;;;;;;5.82;2.63;;;;;;;19.50;48.11;101235.09;5099314;28;20072;-60
2022/06/22 00:40:53;;;;;;;5.28;2.85;;;;;;;19.48;48.40;101238.09;5099607;28;20059;-60
2022/06/22 00:43:27;;;;;;;6.68;2.78;;;;;;;19.46;48.20;101248.44;5101880;28;20048;-61
2022/06/22 00:45:57;;;;;;;5.10;2.75;;;;;;;19.45;48.61;101246.00;5100003;28;20076;-61
2022/06/22 00:48:31;;;;;;;4.55;2.72;;;;;;;19.43;48.55;101245.44;5088645;28;20044;-60
2022/06/22 00:51:02;;;;;;;3.65;2.45;;;;;;;19.37;48.80;101235.63;5099184;28;20079;-60
2022/06/22 00:53:34;;;;;;;9.07;3.38;;;;;;;19.41;48.58;101236.72;5095968;28;20048;-60
2022/06/22 00:56:10;;;;;;;4.78;2.63;;;;;;;19.38;48.78;101220.91;5100354;28;20059;-60
2022/06/22 00:58:43;;;;;;;6.93;2.67;;;;;;;19.37;48.79;101216.53;5096742;28;20071;-61
2022/06/22 01:01:20;;;;;;;6.75;2.90;;;;;;;19.34;48.98;101220.63;5098285;28;20083;-61
2022/06/22 01:03:57;;;;;;;7.20;3.25;;;;;;;19.33;49.11;101227.19;5098154;28;20075;-61
2022/06/22 01:06:32;;;;;;;7.88;3.70;;;;;;;19.31;49.34;101228.53;5096056;28;20047;-61
2022/06/22 01:09:04;;;;;;;6.75;2.78;;;;;;;19.30;49.24;101237.78;5101220;28;20049;-60
2022/06/22 01:14:27;;;;;;;6.07;2.97;;;;;;;19.27;49.91;101255.50;5095565;28;20048;-60
2022/06/22 01:16:58;;;;;;;4.75;3.20;;;;;;;19.22;49.56;101258.22;5093997;28;20072;-61
2022/06/22 01:19:40;;;;;;;8.75;3.17;;;;;;;19.23;49.92;101254.41;5099230;28;20064;-61
2022/06/22 01:22:24;;;;;;;6.47;2.80;;;;;;;19.23;50.10;101254.41;5098716;28;20108;-60
2022/06/22 01:25:00;;;;;;;6.55;3.50;;;;;;;19.22;50.05;101232.88;5090044;28;20167;-60
2022/06/22 01:27:36;;;;;;;8.50;2.83;;;;;;;19.19;50.37;101226.88;5100080;28;20083;-61
2022/06/22 01:30:17;;;;;;;8.43;3.10;;;;;;;19.17;50.79;101212.72;5100729;28;20363;-61
2022/06/22 01:32:46;;;;;;;9.88;3.58;;;;;;;19.13;50.94;101197.97;5095610;28;20048;-61
2022/06/22 01:35:17;;;;;;;6.28;3.00;;;;;;;19.14;50.95;101199.63;5100887;28;20068;-61
2022/06/22 01:37:45;;;;;;;7.00;3.40;;;;;;;19.14;51.19;101198.81;5098787;28;20516;-60
2022/06/22 01:40:16;;;;;;;7.38;3.28;;;;;;;19.12;50.73;101212.69;5093294;28;20529;-61
2022/06/22 01:42:53;;;;;;;4.63;2.90;;;;;;;19.10;51.53;101216.78;5105438;28;20052;-61
2022/06/22 01:45:28;;;;;;;5.68;2.72;;;;;;;19.10;51.52;101223.03;5104415;28;20445;-60
2022/06/22 01:48:02;;;;;;;7.03;3.25;;;;;;;19.09;51.27;101215.16;5104260;28;20346;-61
2022/06/22 01:50:36;;;;;;;11.00;3.67;;;;;;;19.08;51.72;101210.78;5102842;28;20059;-60
2022/06/22 01:53:12;;;;;;;8.20;3.40;;;;;;;19.07;51.85;101198.25;5103145;28;20049;-59
2022/06/22 01:55:47;;;;;;;12.18;3.67;;;;;;;19.04;51.63;101215.16;5102857;28;20124;-60
2022/06/22 01:58:46;;;;;;;10.63;3.55;;;;;;;19.02;52.09;101207.25;5103871;28;20040;-60
2022/06/22 02:01:20;;;;;;;7.20;3.25;;;;;;;19.02;52.03;101201.00;5096534;28;20083;-60
2022/06/22 02:04:01;;;;;;;7.30;2.90;;;;;;;19.01;52.01;101202.09;5094811;28;20056;-60
2022/06/22 02:09:27;;;;;;;5.50;2.88;;;;;;;18.99;52.15;101209.72;5096474;28;20167;-60
2022/06/22 02:14:43;;;;;;;5.95;3.13;;;;;;;18.97;52.20;101222.78;5102108;28;20071;-61
2022/06/22 02:17:15;;;;;;;6.72;2.80;;;;;;;18.97;51.75;101231.75;5095743;28;20053;-61
2022/06/22 02:19:43;;;;;;;10.00;3.53;;;;;;;18.95;51.75;101225.75;5107471;28;20066;-60
2022/06/22 02:22:14;;;;;;;9.23;3.30;;;;;;;18.90;51.89;101220.31;5101530;28;20104;-61
2022/06/22 02:24:46;;;;;;;8.10;3.45;;;;;;;18.95;52.09;101216.78;5099805;28;20063;-60
2022/06/22 02:27:17;;;;;;;6.70;2.70;;;;;;;18.94;51.49;101212.41;5102731;28;20044;-60
2022/06/22 02:29:48;;;;;;;7.78;3.90;;;;;;;18.93;52.39;101208.06;5098876;28;20113;-60
2022/06/22 02:32:19;;;;;;;7.07;3.42;;;;;;;18.90;52.26;101193.06;5099199;28;20059;-60
2022/06/22 02:34:49;;;;;;;6.43;3.80;;;;;;;18.89;52.41;101196.88;5103885;28;20070;-60
2022/06/22 02:37:23;;;;;;;5.75;3.13;;;;;;;18.88;51.99;101199.88;5099850;28;20055;-61
2022/06/22 02:39:54;;;;;;;6.45;3.38;;;;;;;18.87;52.42;101201.78;5099861;28;20056;-59
2022/06/22 02:45:18;;;;;;;5.15;3.50;;;;;;;18.85;52.07;101193.88;5024585;28;20118;-61
2022/06/22 02:47:52;;;;;;;8.90;3.53;;;;;;;18.84;52.27;101191.41;5022160;28;20054;-61
2022/06/22 02:50:25;;;;;;;6.75;3.20;;;;;;;18.84;52.53;101188.69;5033477;28;20080;-60
2022/06/22 02:52:57;;;;;;;7.90;4.00;;;;;;;18.81;52.35;101200.94;5016775;28;20092;-60
2022/06/22 02:55:28;;;;;;;9.05;3.65;;;;;;;18.78;52.24;101198.75;5036153;28;20085;-60
2022/06/22 02:57:58;;;;;;;7.82;3.90;;;;;;;18.79;52.41;101211.28;5024693;28;20490;-60
2022/06/22 03:00:31;;;;;;;6.35;3.63;;;;;;;18.76;52.36;101217.25;5031554;28;20073;-60
2022/06/22 03:03:04;;;;;;;5.95;3.42;;;;;;;18.74;52.71;101208.53;5028627;28;20121;-60
2022/06/22 03:05:34;;;;;;;5.32;3.25;;;;;;;18.75;52.59;101210.19;5023035;28;20069;-61
2022/06/22 03:08:03;;;;;;;7.97;4.13;;;;;;;18.74;52.37;101205.81;5019249;28;20374;-60
2022/06/22 03:10:36;;;;;;;8.65;3.65;;;;;;;18.71;52.68;101198.19;5017546;28;20069;-60
2022/06/22 03:13:04;;;;;;;6.43;3.50;;;;;;;18.73;52.64;101203.38;5020894;28;20050;-60
2022/06/22 03:15:37;;;;;;;5.93;3.58;;;;;;;18.70;52.88;101191.09;5016704;28;20057;-60
2022/06/22 03:18:07;;;;;;;7.07;3.83;;;;;;;18.69;52.97;101194.91;5029583;28;20056;-60
2022/06/22 03:20:41;;;;;;;12.20;3.67;;;;;;;18.68;53.02;101189.72;5041774;28;20048;-61
2022/06/22 03:23:16;;;;;;;8.60;3.67;;;;;;;18.65;53.19;101185.63;5101318;28;20109;-60
2022/06/22 03:25:48;;;;;;;8.35;4.20;;;;;;;18.65;53.14;101180.19;5097821;28;20117;-61
2022/06/22 03:28:19;;;;;;;7.32;4.10;;;;;;;18.64;52.97;101191.34;5102244;28;20051;-61
2022/06/22 03:30:54;;;;;;;6.55;3.33;;;;;;;18.63;53.11;101187.81;5102945;28;20084;-61
2022/06/22 03:33:27;;;;;;;8.20;3.92;;;;;;;18.62;52.87;101182.63;5101203;28;20048;-61
2022/06/22 03:36:00;;;;;;;9.82;3.85;;;;;;;18.62;53.07;101186.19;5101948;28;20048;-60
2022/06/22 03:38:33;;;;;;;6.35;4.13;;;;;;;18.58;53.26;101176.06;5100549;28;20051;-61
2022/06/22 03:41:05;;;;;;;6.28;3.63;;;;;;;18.60;52.89;101187.50;5096278;28;20079;-60
2022/06/22 03:43:37;;;;;;;11.38;4.32;;;;;;;18.58;53.27;101174.16;5099808;28;20177;-60
2022/06/22 03:46:12;;;;;;;6.22;3.55;;;;;;;18.57;53.10;101182.59;5101406;28;20048;-60
2022/06/22 03:48:47;;;;;;;7.97;3.92;;;;;;;18.56;52.94;101176.31;5101233;28;20104;-62
2022/06/22 03:51:22;;;;;;;10.55;4.10;;;;;;;18.56;53.28;101176.31;5100110;28;20427;-61
2022/06/22 03:53:55;;;;;;;8.07;3.88;;;;;;;18.42;53.14;101147.97;5100939;28;20111;-61
2022/06/22 03:56:27;;;;;;;6.75;3.40;;;;;;;18.49;53.34;101157.50;5099400;28;20055;-61
2022/06/22 03:58:55;;;;;;;6.55;3.80;;;;;;;18.52;53.38;101173.31;5099154;28;20055;-61
2022/06/22 04:01:24;;;;;;;7.78;4.05;;;;;;;18.52;53.24;101178.75;5096766;28;20080;-61
2022/06/22 04:03:54;;;;;;;5.90;3.95;;;;;;;18.47;53.03;101176.03;5096383;28;20048;-61
2022/06/22 04:06:31;;;;;;;7.32;4.32;;;;;;;18.51;53.56;101181.75;5102119;28;20135;-61
2022/06/22 04:09:00;;;;;;;7.00;3.72;;;;;;;18.49;53.47;101181.19;5102873;28;20086;-61
2022/06/22 04:11:35;;;;;;;8.63;4.10;;;;;;;18.48;53.46;101174.13;5095517;28;20206;-61
2022/06/22 04:14:10;;;;;;;8.38;4.05;;;;;;;18.47;53.67;101184.19;5100648;28;20044;-61
2022/06/22 04:16:42;;;;;;;10.93;5.38;;;;;;;18.45;53.55;101175.47;5099352;28;20490;-60
2022/06/22 04:19:15;;;;;;;9.07;3.92;;;;;;;18.44;53.29;101178.44;5103494;28;20451;-61
2022/06/22 04:21:46;;;;;;;8.50;4.10;;;;;;;18.44;53.36;101183.91;5095626;28;20044;-61
2022/06/22 04:24:17;;;;;;;9.35;3.75;;;;;;;18.44;53.44;101194.78;5101224;28;20115;-61
2022/06/22 04:26:50;;;;;;;8.13;4.47;;;;;;;18.43;53.47;101184.97;5100850;28;20059;-60
2022/06/22 04:29:26;;;;;;;8.27;4.10;;;;;;;18.42;53.40;101180.63;5098116;28;20060;-61
2022/06/22 04:31:59;;;;;;;8.35;4.00;;;;;;;18.33;53.75;101177.59;5104555;28;20105;-61
2022/06/22 04:34:37;;;;;;;9.48;4.60;;;;;;;18.39;53.90;101192.84;5105481;28;20069;-61
2022/06/22 04:37:15;;;;;;;7.60;4.20;;;;;;;18.39;53.94;101197.47;5097949;28;20044;-61
2022/06/22 04:39:50;;;;;;;7.43;3.88;;;;;;;18.37;53.97;101197.75;5090638;28;20047;-62
2022/06/22 04:42:18;;;;;;;7.28;4.30;;;;;;;18.35;54.11;101199.91;5097583;28;20071;-62
2022/06/22 04:44:50;;;;;;;8.95;4.25;;;;;;;18.34;54.28;101200.19;5094911;28;20044;-65
2022/06/22 04:47:24;;;;;;;7.40;3.95;;;;;;;18.33;54.11;101207.53;5099822;28;20040;-61
2022/06/22 04:49:55;;;;;;;5.47;4.40;;;;;;;18.32;54.28;101203.16;5099424;28;20048;-61
2022/06/22 04:52:28;;;;;;;8.55;4.93;;;;;;;18.33;54.16;101201.25;5095186;28;20125;-61
2022/06/22 04:54:59;;;;;;;7.30;4.45;;;;;;;18.33;54.15;101198.53;5091809;28;20139;-59
2022/06/22 04:57:31;;;;;;;7.13;4.47;;;;;;;18.32;54.12;101195.00;5101278;28;20045;-59
2022/06/22 05:00:03;;;;;;;9.45;4.80;;;;;;;18.32;53.63;101197.72;5097131;28;20064;-59
2022/06/22 05:02:37;;;;;;;5.55;3.92;;;;;;;18.29;53.65;101192.81;5090427;28;20045;-60
2022/06/22 05:05:15;;;;;;;9.50;4.32;;;;;;;18.35;53.72;101205.34;5098481;28;20082;-61
2022/06/22 05:07:49;;;;;;;7.25;4.10;;;;;;;18.37;53.21;101213.25;5092764;28;20044;-60
2022/06/22 05:10:22;;;;;;;10.23;5.03;;;;;;;18.39;53.02;101214.63;5098049;28;20044;-60
2022/06/22 05:12:56;;;;;;;6.05;3.75;;;;;;;18.39;53.09;101203.75;5091898;28;20076;-63
2022/06/22 05:15:27;;;;;;;7.88;4.18;;;;;;;18.41;53.20;101203.47;5100010;28;20040;-68
2022/06/22 05:17:58;;;;;;;8.00;4.20;;;;;;;18.42;53.30;101208.66;5104715;28;20088;-63
2022/06/22 05:20:30;;;;;;;6.50;4.00;;;;;;;18.43;53.29;101209.47;5098747;28;20063;-60
2022/06/22 05:23:01;;;;;;;7.80;4.15;;;;;;;18.44;53.41;101205.66;5097546;28;20051;-60
2022/06/22 05:25:30;;;;;;;7.30;3.70;;;;;;;18.46;53.52;101209.75;5096366;28;20673;-60
2022/06/22 05:28:05;;;;;;;6.57;4.18;;;;;;;18.47;53.27;101208.69;5100114;28;20044;-62
2022/06/22 05:30:36;;;;;;;6.80;3.90;;;;;;;18.49;53.79;101222.03;5108060;28;20078;-62
2022/06/22 05:33:11;;;;;;;5.50;4.45;;;;;;;18.50;53.92;101215.50;5099730;28;20131;-63
2022/06/22 05:35:50;;;;;;;8.18;4.90;;;;;;;18.52;54.25;101219.59;5110961;28;20161;-62
2022/06/22 05:38:20;;;;;;;9.32;4.57;;;;;;;18.52;54.28;101230.47;5098242;28;20035;-62
2022/06/22 05:40:49;;;;;;;10.82;4.60;;;;;;;18.54;54.12;101235.66;5094717;28;20159;-62
2022/06/22 05:43:18;;;;;;;7.47;4.47;;;;;;;18.54;53.97;101247.38;5104385;28;20040;-62
2022/06/22 05:45:50;;;;;;;8.23;4.50;;;;;;;18.57;53.94;101245.19;5101320;28;20086;-62
2022/06/22 05:48:31;;;;;;;6.82;4.10;;;;;;;18.59;53.81;101240.31;5088001;28;10000481;-62
2022/06/22 05:51:02;;;;;;;10.85;4.50;;;;;;;18.60;53.55;101248.22;5092191;28;20080;-63
2022/06/22 05:53:36;;;;;;;8.40;4.78;;;;;;;18.59;53.74;101249.28;5098104;28;20055;-62
2022/06/22 05:56:12;;;;;;;10.15;5.07;;;;;;;18.61;53.50;101254.50;5104100;28;20088;-62
2022/06/22 05:58:43;;;;;;;;;;;;;;;18.59;53.45;101252.00;5097556;28;20686;-61
2022/06/22 06:01:18;;;;;;;7.35;3.97;;;;;;;18.58;53.35;101253.09;5095900;28;19946;-62
2022/06/22 06:03:53;;;;;;;11.93;4.50;;;;;;;18.56;53.66;101251.72;5099748;28;20381;-62
2022/06/22 06:06:27;;;;;;;9.50;4.15;;;;;;;18.56;53.73;101257.16;5096512;28;20131;-62
2022/06/22 06:08:59;;;;;;;5.15;3.97;;;;;;;18.55;53.81;101253.63;5099272;28;20097;-62
2022/06/22 06:11:31;;;;;;;7.75;4.43;;;;;;;18.50;53.93;101245.44;5094658;28;20047;-64
2022/06/22 06:14:03;;;;;;;6.72;4.15;;;;;;;18.52;53.86;101254.97;5093049;28;20086;-62
2022/06/22 06:16:42;;;;;;;10.55;4.50;;;;;;;18.50;54.25;101259.88;5100033;28;20070;-63
2022/06/22 06:19:14;;;;;;;8.52;4.78;;;;;;;18.44;54.18;101255.47;5098454;28;20056;-63
2022/06/22 06:21:42;;;;;;;7.35;3.85;;;;;;;18.46;54.10;101261.47;5096581;28;20070;-63
2022/06/22 06:24:18;;;;;;;8.55;4.07;;;;;;;18.47;54.25;101262.28;5097086;28;20052;-63
2022/06/22 06:29:40;;;;;;;7.63;4.45;;;;;;;18.41;54.18;101266.88;5103304;28;20047;-63
2022/06/22 06:32:30;;;;;;;9.70;4.45;;;;;;;18.36;54.28;101245.09;5097286;28;20051;-63
2022/06/22 06:35:08;;;;;;;10.35;5.32;;;;;;;18.44;54.35;101257.38;5087941;28;20051;-61
2022/06/22 06:37:44;;;;;;;9.32;4.40;;;;;;;18.44;54.22;101254.66;5102339;28;20083;-61
2022/06/22 06:40:16;;;;;;;7.43;4.50;;;;;;;18.44;54.58;101257.38;5094246;28;20608;-62
2022/06/22 06:42:52;;;;;;;10.55;4.88;;;;;;;18.42;54.10;101246.75;5102204;28;20059;-61
2022/06/22 06:45:26;;;;;;;7.03;4.93;;;;;;;18.44;54.14;101254.66;5100057;28;20161;-62
2022/06/22 06:48:02;;;;;;;9.18;4.93;;;;;;;18.44;54.06;101247.31;5099918;28;20094;-61
2022/06/22 06:50:38;;;;;;;7.97;3.60;;;;;;;18.43;54.22;101233.97;5096857;28;20043;-61
2022/06/22 06:53:17;;;;;;;9.80;4.65;;;;;;;18.28;54.18;101206.69;5100444;28;20048;-61
2022/06/22 06:55:50;;;;;;;6.13;4.72;;;;;;;18.44;54.22;101232.88;5100265;28;20062;-60
2022/06/22 06:58:23;;;;;;;6.03;4.38;;;;;;;18.43;54.28;101237.50;5093546;28;20055;-60
2022/06/22 07:00:52;;;;;;;7.20;3.97;;;;;;;18.45;54.41;101232.63;5096890;28;20052;-60
2022/06/22 07:03:23;;;;;;;6.75;3.88;;;;;;;18.47;54.25;101243.25;5097974;28;20064;-60
2022/06/22 07:05:53;;;;;;;8.18;4.18;;;;;;;18.47;54.40;101235.06;5095285;28;20044;-61
2022/06/22 07:08:24;;;;;;;7.85;4.20;;;;;;;18.47;54.20;101241.34;5095679;28;20047;-60
2022/06/22 07:11:15;;;;;;;7.72;4.20;;;;;;;18.49;54.37;101238.34;5098749;28;20048;-60
2022/06/22 07:13:48;;;;;;;7.22;3.88;;;;;;;18.50;54.24;101231.81;5102114;28;20111;-61
2022/06/22 07:16:21;;;;;;;7.28;4.18;;;;;;;18.50;54.28;101235.38;5099435;28;20060;-60
2022/06/22 07:18:54;;;;;;;10.18;4.13;;;;;;;18.52;54.24;101237.81;5109707;28;20052;-60
2022/06/22 07:21:29;;;;;;;5.60;3.97;;;;;;;18.52;54.16;101232.38;5099869;28;20568;-60
2022/06/22 07:24:01;;;;;;;7.60;4.78;;;;;;;18.52;54.21;101229.66;5106097;28;20091;-60
2022/06/22 07:26:42;;;;;;;8.27;4.95;;;;;;;18.53;54.24;101221.22;5096709;28;20097;-60
2022/06/22 07:29:22;;;;;;;7.28;4.07;;;;;;;18.51;54.43;101208.97;5097850;28;20071;-59
2022/06/22 07:31:59;;;;;;;13.00;3.92;;;;;;;18.56;54.04;101210.88;5101827;28;20052;-59
2022/06/22 07:34:34;;;;;;;8.60;3.92;;;;;;;18.58;54.30;101206.00;5098365;28;20080;-60
2022/06/22 07:37:11;;;;;;;7.03;4.15;;;;;;;18.60;54.18;101214.72;5102487;28;20056;-60
2022/06/22 07:39:46;;;;;;;5.22;3.60;;;;;;;18.55;54.27;101204.63;5088486;28;20086;-60
2022/06/22 07:42:15;;;;;;;7.72;3.42;;;;;;;18.60;54.07;101212.81;5095115;28;20052;-60
2022/06/22 07:44:43;;;;;;;6.32;3.08;;;;;;;18.60;53.77;101215.53;5100891;28;20055;-60
2022/06/22 07:47:17;;;;;;;4.70;3.33;;;;;;;18.63;53.84;101225.94;5100755;28;20082;-60
2022/06/22 07:49:51;;;;;;;5.47;3.45;;;;;;;18.64;53.98;101216.69;5098259;28;20044;-62
2022/06/22 07:52:25;;;;;;;6.03;3.08;;;;;;;18.65;53.80;101212.03;5098536;28;20108;-60
2022/06/22 07:54:59;;;;;;;5.90;3.33;;;;;;;18.65;53.70;101212.88;5098161;28;20059;-60
2022/06/22 07:57:35;;;;;;;4.53;3.58;;;;;;;18.67;53.61;101213.41;5100049;28;20048;-60
2022/06/22 08:00:08;;;;;;;11.00;4.35;;;;;;;18.69;53.68;101218.59;5092876;28;20086;-61
2022/06/22 08:02:46;;;;;;;10.07;3.63;;;;;;;18.70;53.52;101209.34;5094559;28;20044;-59
2022/06/22 08:05:18;;;;;;;5.72;3.53;;;;;;;18.67;53.53;101207.97;5097561;28;20119;-59
2022/06/22 08:07:51;;;;;;;4.53;3.38;;;;;;;18.70;53.54;101214.78;5088662;28;20040;-60
2022/06/22 08:10:23;;;;;;;5.90;3.63;;;;;;;18.71;53.50;101217.25;5094814;28;20048;-62
2022/06/22 08:13:02;;;;;;;5.97;3.30;;;;;;;18.71;53.45;101216.44;5094300;28;20084;-59
2022/06/22 08:15:35;;;;;;;4.72;3.00;;;;;;;18.73;53.48;101219.69;5099108;28;20051;-59
2022/06/22 08:18:03;;;;;;;7.95;3.45;;;;;;;18.74;53.44;101227.59;5098251;28;20053;-59
2022/06/22 08:20:34;;;;;;;6.78;3.53;;;;;;;18.75;53.40;101228.44;5098085;28;20086;-60
2022/06/22 08:23:07;;;;;;;8.32;3.60;;;;;;;18.74;53.41;101227.59;5096260;28;20069;-60
2022/06/22 08:25:57;;;;;;;12.95;3.78;;;;;;;18.76;53.18;101236.31;5094526;28;20166;-61
2022/06/22 08:28:29;;;;;;;4.82;3.35;;;;;;;18.76;53.08;101235.50;5097706;28;20063;-61
2022/06/22 08:30:57;;;;;;;9.75;3.83;;;;;;;18.77;53.16;101227.06;5099324;28;20086;-61
2022/06/22 08:33:31;;;;;;;6.32;3.25;;;;;;;18.80;53.02;101231.16;5099145;28;20044;-60
2022/06/22 08:36:04;;;;;;;8.82;4.15;;;;;;;18.81;52.96;101235.53;5099881;28;20044;-60
2022/06/22 08:38:39;;;;;;;7.50;4.10;;;;;;;18.83;52.78;101241.53;5097710;28;20078;-60
2022/06/22 08:41:16;;;;;;;4.53;3.00;;;;;;;18.87;52.85;101239.09;5098010;28;20071;-61
2022/06/22 08:43:51;;;;;;;8.48;3.53;;;;;;;18.87;52.79;101231.72;5104483;28;20059;-61
2022/06/22 08:46:55;;;;;;;7.93;2.72;;;;;;;18.90;52.83;101241.28;5093627;28;20044;-61
2022/06/22 08:50:03;;;;;;;6.13;3.15;;;;;;;18.93;52.70;101247.00;5099384;28;20050;-60
2022/06/22 08:52:46;;;;;;;9.13;3.05;;;;;;;18.94;51.98;101236.94;5093635;28;20052;-60
2022/06/22 08:55:49;;;;;;;6.80;2.55;;;;;;;18.95;51.36;101230.41;5091997;28;20083;-59
2022/06/22 08:58:35;;;;;;;7.90;2.90;;;;;;;18.95;51.04;101231.22;5096730;28;20081;-60
2022/06/22 09:01:12;;;;;;;15.75;2.75;;;;;;;18.98;51.09;101227.13;5092395;28;20044;-60
2022/06/22 09:04:11;;;;;;;10.45;2.78;;;;;;;19.01;51.44;101230.13;5095895;28;20048;-58
2022/06/22 09:07:10;;;;;;;4.60;2.17;;;;;;;19.02;51.49;101220.88;5085143;28;20044;-60
2022/06/22 09:10:14;;;;;;;7.13;2.80;;;;;;;19.08;51.65;101225.22;5094647;28;20052;-60
2022/06/22 09:13:00;;;;;;;7.15;2.60;;;;;;;19.09;51.14;101223.31;5079787;28;20076;-60
2022/06/22 09:15:40;;;;;;;7.32;3.33;;;;;;;19.21;50.90;101220.34;5094214;28;20062;-62
2022/06/22 09:18:36;;;;;;;6.30;2.90;;;;;;;19.97;48.56;101223.94;5089113;28;20068;-61
2022/06/22 09:21:20;;;;;;;7.73;3.60;;;;;;;20.59;45.74;101219.97;5093012;28;20587;-62
2022/06/22 09:24:01;;;;;;;13.93;3.92;;;;;;;20.51;46.86;101220.53;5081107;28;20535;-60
2022/06/22 09:26:36;;;;;;;8.68;2.97;;;;;;;20.15;48.11;101230.72;5093729;28;20192;-61
2022/06/22 09:29:14;;;;;;;6.60;2.55;;;;;;;19.94;48.65;101219.03;5109393;28;20047;-61
2022/06/22 09:32:15;;;;;;;9.13;2.65;;;;;;;19.81;49.30;101228.59;5098662;28;20055;-61
2022/06/22 09:35:10;;;;;;;5.10;2.08;;;;;;;19.73;49.90;101234.59;5089233;28;20048;-61
2022/06/22 09:37:58;;;;;;;6.10;2.25;;;;;;;19.67;50.00;101232.94;5100402;28;20048;-61
2022/06/22 09:40:48;;;;;;;6.00;2.20;;;;;;;19.68;50.17;101239.22;5091625;28;20052;-61
2022/06/22 09:43:53;;;;;;;6.45;2.30;;;;;;;19.68;50.52;101242.78;5102323;28;20044;-60
2022/06/22 09:46:50;;;;;;;8.85;2.42;;;;;;;19.71;50.69;101234.03;5091584;28;20044;-61
2022/06/22 09:49:43;;;;;;;3.97;2.05;;;;;;;19.73;50.30;101242.78;5082788;28;20049;-60
2022/06/22 09:52:37;;;;;;;6.38;2.20;;;;;;;19.73;50.18;101225.59;5098956;28;20051;-61
2022/06/22 09:58:42;;;;;;;4.50;1.73;;;;;;;19.77;50.40;101216.59;5098436;28;20052;-61
2022/06/22 10:01:17;;;;;;;4.43;1.83;;;;;;;19.80;50.46;101218.75;5097257;28;20052;-62
2022/06/22 10:04:32;;;;;;;7.03;2.50;;;;;;;19.93;49.69;101217.38;5103937;28;20122;-62
2022/06/22 10:07:15;;;;;;;5.03;2.08;;;;;;;20.06;49.53;101205.09;5096077;28;20063;-61
2022/06/22 10:10:06;;;;;;;7.22;2.38;;;;;;;20.07;49.98;101202.06;5102329;28;20070;-60
2022/06/22 10:13:08;;;;;;;8.23;2.78;;;;;;;20.09;50.07;101216.25;5101365;28;20074;-63
2022/06/22 10:15:58;;;;;;;7.85;2.53;;;;;;;20.09;50.25;101207.25;5017389;28;20053;-62
2022/06/22 10:18:46;;;;;;;5.00;1.65;;;;;;;20.11;50.37;101189.50;5014002;28;20217;-63
2022/06/22 10:21:25;;;;;;;11.25;2.45;;;;;;;20.16;50.58;101194.16;5011435;28;20073;-64
2022/06/22 10:24:11;;;;;;;3.63;1.80;;;;;;;20.18;50.35;101197.41;5020938;28;20054;-63
2022/06/22 10:26:52;;;;;;;5.78;1.88;;;;;;;20.18;50.29;101197.41;5021832;28;20054;-64
2022/06/22 10:29:42;;;;;;;4.15;1.73;;;;;;;20.10;50.45;101181.59;5022078;28;20563;-64
2022/06/22 10:32:42;;;;;;;7.22;2.53;;;;;;;20.27;50.37;101197.66;5018984;28;20077;-64
2022/06/22 10:35:27;;;;;;;4.05;1.90;;;;;;;20.34;50.92;101196.28;4992358;28;20133;-64
2022/06/22 10:38:29;;;;;;;6.45;2.22;;;;;;;20.39;50.41;101199.00;5016035;28;20054;-63
2022/06/22 10:47:11;;;;;;;5.53;2.10;;;;;;;20.52;50.62;101181.22;5017986;28;20052;-59
2022/06/22 10:49:53;;;;;;;6.53;2.70;;;;;;;20.55;50.02;101177.91;5013679;28;20216;-59
2022/06/22 10:52:52;;;;;;;6.22;2.60;;;;;;;20.59;50.12;101170.00;4726485;28;10001319;-60
2022/06/22 10:55:43;;;;;;;7.57;2.38;;;;;;;20.63;50.03;101179.25;5097361;28;20040;-60
2022/06/22 10:58:29;;;;;;;3.92;1.80;;;;;;;20.66;49.58;101182.25;5099290;28;20071;-60
2022/06/22 11:01:13;;;;;;;6.32;2.30;;;;;;;20.70;49.07;101180.56;5097460;28;20062;-60
2022/06/22 11:04:28;;;;;;;4.95;2.10;;;;;;;20.74;49.42;101176.19;5099386;28;20048;-60
2022/06/22 11:07:29;;;;;;;4.35;2.20;;;;;;;20.79;49.38;101184.34;5095982;28;20059;-61
2022/06/22 11:10:13;;;;;;;6.80;2.15;;;;;;;20.85;49.28;101176.09;5099137;28;20051;-61
2022/06/22 11:12:59;;;;;;;5.25;2.03;;;;;;;20.93;49.63;101180.97;5095436;28;20084;-61
2022/06/22 11:15:58;;;;;;;7.50;2.25;;;;;;;20.97;48.53;101182.03;5095938;28;20048;-60
2022/06/22 11:18:54;;;;;;;6.65;2.13;;;;;;;21.02;48.40;101185.56;5095991;28;20052;-61
2022/06/22 11:21:40;;;;;;;3.22;1.58;;;;;;;21.09;48.69;101183.31;5099374;28;20587;-60
2022/06/22 11:24:48;;;;;;;6.47;2.03;;;;;;;21.15;48.40;101173.16;5092841;28;20051;-61
2022/06/22 11:33:51;;;;;;;7.00;2.05;;;;;;;21.30;48.05;101192.22;5012409;28;20054;-61
2022/06/22 11:36:40;;;;;;;5.88;1.65;;;;;;;21.36;48.64;101193.81;5001634;28;20058;-60
2022/06/22 11:40:00;;;;;;;3.90;1.80;;;;;;;21.50;49.21;101202.19;5010178;28;20063;-60
2022/06/22 11:42:41;;;;;;;5.18;2.20;;;;;;;21.58;49.40;101203.50;5009638;28;20078;-60
2022/06/22 11:48:39;;;;;;;6.30;1.70;;;;;;;21.72;47.76;101193.50;5008369;28;20053;-61
2022/06/22 11:51:26;;;;;;;4.22;1.77;;;;;;;21.76;46.65;101205.50;5011335;28;20156;-61
2022/06/22 11:54:34;;;;;;;3.65;1.73;;;;;;;21.78;45.83;101206.03;5012125;28;20042;-60
2022/06/22 11:57:18;;;;;;;4.97;1.65;;;;;;;21.81;45.23;101197.25;5003460;28;20069;-60
2022/06/22 12:00:00;;;;;;;7.07;1.63;;;;;;;21.86;45.85;101199.13;5003546;28;20057;-60
2022/06/22 12:02:55;;;;;;;5.82;1.70;;;;;;;21.87;43.58;101196.09;4997530;28;20113;-61
2022/06/22 12:05:45;;;;;;;6.85;1.60;;;;;;;21.81;44.31;101178.09;5095364;28;20124;-61
2022/06/22 12:08:30;;;;;;;3.13;1.50;;;;;;;21.95;45.36;101192.75;5097491;28;20102;-60
2022/06/22 12:11:13;;;;;;;3.72;1.75;;;;;;;22.06;44.27;101191.56;5091766;28;20249;-61
2022/06/22 12:16:50;;;;;;;7.38;1.60;;;;;;;22.15;42.57;101180.78;5096442;28;20072;-61
2022/06/22 12:19:32;;;;;;;6.82;2.70;;;;;;;22.17;42.00;101178.56;5089954;28;20075;-61
2022/06/22 12:22:32;;;;;;;7.38;1.75;;;;;;;22.18;41.60;101165.69;5094024;28;20049;-61
2022/06/22 12:25:30;;;;;;;3.92;1.40;;;;;;;22.25;42.29;101161.50;5097213;28;20067;-61
2022/06/22 12:28:12;;;;;;;4.20;1.58;;;;;;;22.30;40.86;101166.91;5096477;28;20059;-61
2022/06/22 12:30:53;;;;;;;4.95;1.25;;;;;;;22.36;41.78;101167.66;5101138;28;20055;-60
2022/06/22 12:33:25;;;;;;;4.15;1.55;;;;;;;22.42;41.32;101168.41;5098457;28;20078;-61
2022/06/22 12:35:59;;;;;;;3.60;1.60;;;;;;;22.48;42.08;101162.59;5100628;28;20043;-61
2022/06/22 12:38:34;;;;;;;4.88;1.42;;;;;;;22.54;41.63;101163.31;5102808;28;20047;-62
2022/06/22 12:41:33;;;;;;;5.28;1.65;;;;;;;22.56;40.15;101147.38;5091602;28;20060;-61
2022/06/22 12:44:25;;;;;;;2.55;1.25;;;;;;;22.64;41.60;101146.72;5101441;28;20514;-62
2022/06/22 12:47:07;;;;;;;3.53;1.38;;;;;;;22.64;39.89;101138.50;5098646;28;20048;-62
2022/06/22 12:49:53;;;;;;;3.75;1.15;;;;;;;22.72;41.14;101140.59;5105818;28;20044;-64
2022/06/22 12:52:29;;;;;;;5.40;1.42;;;;;;;22.74;39.51;101133.69;5099249;28;20044;-62